createdAt,value
2018-12-02T00:00:37.731Z,255.87
2018-12-02T00:03:07.947Z,266.53
2018-12-02T00:05:36.591Z,299.67
2018-12-02T00:08:04.911Z,249.40
2018-12-02T00:10:32.977Z,258.70
2018-12-02T00:13:00.989Z,297.77
2018-12-02T00:15:29.601Z,264.73
2018-12-02T00:17:59.504Z,291.83
2018-12-02T00:20:27.716Z,284.40
2018-12-02T00:22:55.737Z,293.67
2018-12-02T00:25:23.776Z,296.97
2018-12-02T00:27:56.146Z,278.13
2018-12-02T00:30:28.193Z,311.80
2018-12-02T00:32:56.217Z,289.77
2018-12-02T00:35:24.308Z,271.83
2018-12-02T00:37:54.401Z,296.57
2018-12-02T00:40:22.966Z,300.43
2018-12-02T00:42:52.893Z,300.93
2018-12-02T00:45:22.159Z,309.47
2018-12-02T00:47:50.193Z,287.37
2018-12-02T00:50:18.782Z,303.30
2018-12-02T00:52:51.337Z,310.63
2018-12-02T00:55:21.521Z,314.13
2018-12-02T00:57:49.533Z,321.83
2018-12-02T01:00:17.631Z,311.83
2018-12-02T01:02:46.770Z,327.23
2018-12-02T01:05:15.799Z,347.20
2018-12-02T01:07:43.852Z,335.33
2018-12-02T01:10:14.251Z,311.83
2018-12-02T01:12:42.255Z,327.27
2018-12-02T01:15:12.459Z,329.77
2018-12-02T01:17:40.492Z,335.10
2018-12-02T01:20:11.053Z,355.27
2018-12-02T01:22:39.055Z,370.40
2018-12-02T01:25:09.057Z,368.10
2018-12-02T01:27:37.242Z,349.83
2018-12-02T01:30:23.228Z,361.27
2018-12-02T01:32:53.003Z,353.40
2018-12-02T01:35:21.003Z,368.63
2018-12-02T01:37:49.121Z,355.20
2018-12-02T01:40:19.135Z,346.33
2018-12-02T01:42:47.415Z,363.50
2018-12-02T01:45:17.285Z,402.23
2018-12-02T01:47:45.322Z,343.80
2018-12-02T01:50:15.294Z,355.27
2018-12-02T01:52:44.181Z,385.30
2018-12-02T01:55:12.197Z,352.20
2018-12-02T01:57:40.242Z,380.63
2018-12-02T02:00:15.953Z,399.33
2018-12-02T02:02:43.932Z,399.57
2018-12-02T02:05:12.075Z,397.80
2018-12-02T02:07:40.134Z,405.63
2018-12-02T02:10:10.458Z,362.87
2018-12-02T02:12:38.485Z,383.37
2018-12-02T02:15:07.761Z,382.83
2018-12-02T02:17:35.740Z,395.43
2018-12-02T02:20:04.892Z,372.90
2018-12-02T02:22:32.904Z,392.13
2018-12-02T02:25:00.861Z,347.50
2018-12-02T02:27:28.857Z,327.97
2018-12-02T02:29:56.938Z,355.90
2018-12-02T02:32:24.923Z,354.07
2018-12-02T02:34:52.938Z,363.70
2018-12-02T02:37:20.973Z,360.10
2018-12-02T02:39:48.960Z,340.47
2018-12-02T02:42:16.988Z,364.53
2018-12-02T02:47:19.534Z,326.47
2018-12-02T02:49:47.543Z,332.17
2018-12-02T02:52:15.568Z,354.67
2018-12-02T02:54:43.847Z,331.00
2018-12-02T02:57:11.852Z,347.43
2018-12-02T02:59:39.831Z,348.10
2018-12-02T03:02:07.885Z,340.47
2018-12-02T03:04:35.904Z,330.97
2018-12-02T03:07:03.926Z,339.17
2018-12-02T03:09:31.920Z,319.23
2018-12-02T03:11:59.914Z,339.80
2018-12-02T03:14:27.905Z,350.30
2018-12-02T03:16:55.886Z,358.13
2018-12-02T03:19:23.943Z,348.30
2018-12-02T03:21:51.924Z,345.43
2018-12-02T03:24:19.892Z,352.23
2018-12-02T03:26:47.905Z,357.97
2018-12-02T03:29:15.920Z,365.10
2018-12-02T03:31:43.931Z,335.07
2018-12-02T03:34:11.946Z,334.17
2018-12-02T03:36:39.914Z,340.03
2018-12-02T03:39:08.084Z,341.87
2018-12-02T03:41:36.089Z,367.13
2018-12-02T03:44:04.102Z,397.40
2018-12-02T03:46:32.069Z,347.73
2018-12-02T03:49:00.084Z,388.87
2018-12-02T03:51:28.033Z,365.20
2018-12-02T03:53:55.980Z,391.17
2018-12-02T03:56:23.963Z,369.20
2018-12-02T03:58:51.920Z,399.90
2018-12-02T04:01:19.890Z,410.17
2018-12-02T04:03:47.909Z,381.20
2018-12-02T04:06:15.886Z,378.57
2018-12-02T04:08:43.848Z,393.37
2018-12-02T04:11:11.888Z,358.07
2018-12-02T04:13:39.845Z,378.77
2018-12-02T04:16:07.813Z,396.87
2018-12-02T04:18:35.830Z,388.40
2018-12-02T04:21:03.826Z,396.73
2018-12-02T04:23:31.802Z,407.53
2018-12-02T04:25:59.801Z,394.10
2018-12-02T04:28:27.775Z,391.50
2018-12-02T04:30:55.724Z,404.27
2018-12-02T04:33:23.755Z,414.20
2018-12-02T04:35:51.761Z,407.10
2018-12-02T04:38:19.730Z,416.50
2018-12-02T04:40:47.745Z,403.77
2018-12-02T04:43:15.759Z,399.37
2018-12-02T04:45:43.735Z,381.07
2018-12-02T04:48:11.756Z,408.67
2018-12-02T04:50:39.729Z,380.03
2018-12-02T04:53:07.725Z,396.87
2018-12-02T04:55:35.747Z,376.47
2018-12-02T04:58:03.782Z,377.50
2018-12-02T05:00:31.786Z,377.27
2018-12-02T05:02:59.814Z,362.37
2018-12-02T05:05:27.759Z,363.43
2018-12-02T05:07:55.707Z,364.97
2018-12-02T05:10:23.723Z,383.87
2018-12-02T05:12:51.764Z,380.43
2018-12-02T05:15:20.571Z,393.57
2018-12-02T05:17:48.621Z,384.20
2018-12-02T05:20:17.517Z,371.47
2018-12-02T05:22:45.517Z,350.03
2018-12-02T05:25:17.574Z,352.20
2018-12-02T05:27:42.858Z,372.43
2018-12-02T05:30:11.627Z,365.23
2018-12-02T05:32:39.961Z,398.27
2018-12-02T05:35:08.805Z,386.23
2018-12-02T05:37:36.790Z,392.23
2018-12-02T05:40:08.270Z,390.60
2018-12-02T05:42:36.265Z,403.57
2018-12-02T05:45:04.893Z,379.60
2018-12-02T05:47:32.864Z,385.37
2018-12-02T05:50:00.815Z,380.70
2018-12-02T05:52:28.809Z,389.67
2018-12-02T05:54:56.827Z,400.80
2018-12-02T05:57:24.822Z,374.70
2018-12-02T05:59:52.784Z,389.93
2018-12-02T06:02:20.842Z,361.83
2018-12-02T06:04:48.804Z,416.73
2018-12-02T06:07:16.794Z,365.73
2018-12-02T06:09:44.796Z,399.17
2018-12-02T06:12:12.741Z,337.83
2018-12-02T06:14:40.733Z,403.13
2018-12-02T06:17:08.730Z,372.00
2018-12-02T06:19:36.698Z,369.33
2018-12-02T06:22:05.072Z,367.40
2018-12-02T06:24:33.076Z,369.93
2018-12-02T06:27:01.070Z,391.13
2018-12-02T06:29:29.053Z,379.17
2018-12-02T06:31:57.071Z,369.40
2018-12-02T06:34:25.052Z,389.57
2018-12-02T06:36:53.026Z,372.07
2018-12-02T06:39:21.075Z,371.37
2018-12-02T06:41:49.045Z,351.47
2018-12-02T06:44:17.001Z,377.77
2018-12-02T06:46:45.014Z,372.10
2018-12-02T06:49:13.013Z,347.20
2018-12-02T06:51:40.993Z,355.10
2018-12-02T06:54:08.994Z,355.90
2018-12-02T06:56:41.408Z,366.27
2018-12-02T06:59:47.843Z,323.13
2018-12-02T07:02:25.096Z,346.90
2018-12-02T07:04:53.097Z,353.00
2018-12-02T07:07:21.088Z,376.17
2018-12-02T07:09:49.070Z,331.33
2018-12-02T07:12:17.254Z,335.87
2018-12-02T07:14:45.230Z,351.83
2018-12-02T07:17:13.237Z,336.00
2018-12-02T07:19:45.126Z,346.47
2018-12-02T07:22:18.477Z,323.80
2018-12-02T07:24:47.196Z,332.20
2018-12-02T07:27:16.150Z,333.17
2018-12-02T07:29:44.155Z,326.13
2018-12-02T07:32:12.478Z,329.27
2018-12-02T07:34:40.484Z,319.23
2018-12-02T07:37:14.245Z,335.03
2018-12-02T07:40:52.146Z,337.87
2018-12-02T07:43:20.209Z,365.13
2018-12-02T07:45:48.188Z,345.33
2018-12-02T07:48:16.165Z,327.03
2018-12-02T07:50:44.192Z,342.53
2018-12-02T07:53:12.215Z,330.00
2018-12-02T07:55:40.202Z,310.93
2018-12-02T07:58:14.270Z,354.07
2018-12-02T08:00:42.554Z,323.93
2018-12-02T08:03:10.577Z,336.93
2018-12-02T08:05:38.607Z,337.07
2018-12-02T08:08:06.661Z,306.23
2018-12-02T08:10:34.650Z,326.03
2018-12-02T08:13:02.781Z,334.60
2018-12-02T08:15:30.854Z,314.97
2018-12-02T08:17:58.830Z,333.70
2018-12-02T08:20:26.928Z,307.00
2018-12-02T08:22:54.890Z,315.60
2018-12-02T08:25:22.869Z,318.33
2018-12-02T08:27:50.889Z,300.37
2018-12-02T08:30:21.801Z,301.77
2018-12-02T08:32:49.825Z,301.17
2018-12-02T08:35:19.069Z,287.47
2018-12-02T08:37:49.441Z,306.30
2018-12-02T08:40:17.491Z,314.17
2018-12-02T08:42:45.537Z,336.70
2018-12-02T08:45:17.466Z,299.67
2018-12-02T08:47:45.626Z,281.80
2018-12-02T08:50:16.618Z,319.20
2018-12-02T08:52:45.057Z,311.60
2018-12-02T08:55:14.353Z,290.87
2018-12-02T08:57:42.395Z,341.37
2018-12-02T09:00:14.801Z,317.77
2018-12-02T09:02:43.893Z,308.17
2018-12-02T09:05:13.077Z,307.80
2018-12-02T09:07:41.209Z,302.53
2018-12-02T09:10:16.709Z,285.87
2018-12-02T09:12:44.815Z,283.13
2018-12-02T09:15:12.875Z,299.60
2018-12-02T09:17:40.875Z,306.33
2018-12-02T09:20:17.289Z,267.50
2018-12-02T09:22:45.367Z,239.67
2018-12-02T09:25:13.410Z,299.43
2018-12-02T09:27:41.465Z,312.27
2018-12-02T09:30:18.245Z,284.90
2018-12-02T09:32:46.314Z,298.57
2018-12-02T09:35:14.406Z,303.40
2018-12-02T09:37:42.415Z,267.57
2018-12-02T09:40:13.385Z,285.00
2018-12-02T09:42:42.622Z,268.93
2018-12-02T09:45:13.116Z,247.90
2018-12-02T09:47:41.181Z,258.00
2018-12-02T09:50:11.357Z,240.23
2018-12-02T09:52:39.370Z,252.60
2018-12-02T09:55:16.309Z,259.30
2018-12-02T09:57:44.313Z,237.37
2018-12-02T10:00:15.926Z,222.80
2018-12-02T10:02:43.973Z,229.67
2018-12-02T10:05:12.060Z,213.23
2018-12-02T10:07:40.044Z,197.63
2018-12-02T10:10:15.300Z,198.07
2018-12-02T10:12:47.434Z,198.20
2018-12-02T10:15:16.026Z,205.83
2018-12-02T10:17:44.048Z,207.30
2018-12-02T10:20:14.884Z,198.60
2018-12-02T10:22:43.436Z,199.00
2018-12-02T10:25:13.417Z,212.57
2018-12-02T10:27:41.370Z,185.37
2018-12-02T10:30:17.530Z,193.13
2018-12-02T10:32:45.513Z,179.57
2018-12-02T10:35:13.593Z,195.83
2018-12-02T10:37:41.577Z,190.97
2018-12-02T10:40:14.622Z,177.00
2018-12-02T10:42:42.634Z,187.53
2018-12-02T10:45:22.399Z,186.17
2018-12-02T10:47:53.300Z,159.40
2018-12-02T10:50:24.513Z,157.90
2018-12-02T10:52:53.786Z,150.20
2018-12-02T10:55:55.750Z,157.70
2018-12-02T10:58:26.549Z,146.10
2018-12-02T11:01:02.249Z,149.17
2018-12-02T11:03:30.910Z,143.47
2018-12-02T11:05:58.957Z,158.03
2018-12-02T11:08:26.975Z,154.67
2018-12-02T11:10:55.006Z,159.90
2018-12-02T11:13:23.018Z,147.03
2018-12-02T11:15:51.033Z,141.60
2018-12-02T11:18:19.129Z,152.30
2018-12-02T11:20:47.175Z,150.40
2018-12-02T11:23:15.193Z,152.23
2018-12-02T11:25:43.207Z,145.70
2018-12-02T11:28:11.301Z,142.63
2018-12-02T11:30:39.476Z,140.23
2018-12-02T11:33:07.883Z,134.17
2018-12-02T11:35:35.887Z,138.30
2018-12-02T11:38:04.049Z,127.57
2018-12-02T11:40:32.063Z,131.60
2018-12-02T11:43:00.064Z,124.33
2018-12-02T11:45:28.071Z,115.60
2018-12-02T11:47:56.089Z,110.60
2018-12-02T11:50:25.899Z,105.83
2018-12-02T11:52:53.855Z,135.33
2018-12-02T11:55:22.564Z,120.60
2018-12-02T11:57:50.697Z,94.03
2018-12-02T12:00:27.341Z,107.00
2018-12-02T12:02:56.378Z,98.93
2018-12-02T12:05:24.441Z,88.73
2018-12-02T12:07:52.506Z,91.60
2018-12-02T12:10:21.597Z,101.97
2018-12-02T12:12:50.566Z,96.30
2018-12-02T12:15:19.755Z,94.43
2018-12-02T12:17:47.812Z,85.90
2018-12-02T12:20:23.043Z,75.27
2018-12-02T12:22:51.067Z,79.87
2018-12-02T12:25:19.081Z,85.97
2018-12-02T12:27:47.256Z,83.70
2018-12-02T12:30:17.653Z,86.07
2018-12-02T12:32:45.711Z,94.53
2018-12-02T12:35:14.933Z,95.27
2018-12-02T12:37:43.029Z,98.97
2018-12-02T12:40:14.123Z,101.83
2018-12-02T12:42:43.665Z,110.13
2018-12-02T12:45:12.965Z,107.47
2018-12-02T12:47:41.841Z,98.67
2018-12-02T12:50:11.489Z,92.03
2018-12-02T12:52:39.695Z,96.57
2018-12-02T12:55:09.689Z,87.63
2018-12-02T12:57:37.801Z,100.87
2018-12-02T13:00:13.863Z,113.97
2018-12-02T13:02:42.173Z,114.10
2018-12-02T13:05:11.777Z,110.63
2018-12-02T13:07:39.822Z,127.27
2018-12-02T13:10:11.164Z,124.50
2018-12-02T13:12:39.369Z,110.03
2018-12-02T13:15:13.468Z,104.10
2018-12-02T13:17:42.693Z,110.67
2018-12-02T13:20:12.181Z,104.87
2018-12-02T13:22:40.268Z,103.60
2018-12-02T13:25:09.995Z,95.17
2018-12-02T13:27:38.055Z,98.83
2018-12-02T13:30:17.940Z,110.77
2018-12-02T13:32:49.180Z,101.40
2018-12-02T13:35:17.263Z,107.73
2018-12-02T13:37:45.353Z,110.30
2018-12-02T13:40:17.409Z,113.57
2018-12-02T13:42:47.816Z,111.90
2018-12-02T13:45:18.118Z,122.17
2018-12-02T13:47:46.136Z,114.53
2018-12-02T13:50:16.297Z,132.80
2018-12-02T13:52:44.755Z,124.70
2018-12-02T13:55:16.936Z,120.13
2018-12-02T13:57:45.523Z,117.93
2018-12-02T14:00:18.623Z,106.33
2018-12-02T14:02:48.207Z,97.40
2018-12-02T14:05:16.313Z,110.03
2018-12-02T14:07:44.366Z,104.50
2018-12-02T14:10:13.543Z,113.13
2018-12-02T14:12:43.023Z,107.10
2018-12-02T14:15:31.115Z,109.30
2018-12-02T14:18:03.829Z,113.63
2018-12-02T14:20:31.909Z,109.80
2018-12-02T14:22:59.978Z,114.80
2018-12-02T14:25:28.047Z,103.03
2018-12-02T14:27:56.165Z,99.60
2018-12-02T14:30:24.207Z,105.83
2018-12-02T14:32:52.678Z,106.77
2018-12-02T14:35:20.774Z,116.57
2018-12-02T14:37:50.882Z,96.33
2018-12-02T14:40:20.741Z,106.43
2018-12-02T14:42:48.781Z,107.63
2018-12-02T14:45:18.320Z,103.87
2018-12-02T14:47:46.801Z,104.57
2018-12-02T14:50:16.569Z,115.43
2018-12-02T14:52:46.846Z,106.13
2018-12-02T14:55:16.300Z,97.40
2018-12-02T14:57:44.391Z,101.27
2018-12-02T15:00:15.497Z,106.60
2018-12-02T15:02:43.657Z,107.90
2018-12-02T15:05:13.556Z,96.60
2018-12-02T15:07:42.569Z,89.07
2018-12-02T15:10:12.837Z,104.00
2018-12-02T15:12:40.965Z,92.20
2018-12-02T15:15:12.223Z,92.93
2018-12-02T15:17:40.291Z,97.07
2018-12-02T15:20:12.041Z,110.10
2018-12-02T15:22:40.104Z,96.63
2018-12-02T15:25:09.855Z,80.80
2018-12-02T15:27:37.953Z,96.23
2018-12-02T15:30:10.282Z,92.50
2018-12-02T15:32:38.374Z,85.40
2018-12-02T15:35:07.510Z,94.93
2018-12-02T15:37:35.565Z,85.00
2018-12-02T15:40:03.809Z,88.33
2018-12-02T15:42:31.840Z,97.87
2018-12-02T15:44:59.935Z,70.27
2018-12-02T15:47:28.020Z,90.80
2018-12-02T15:49:56.097Z,97.87
2018-12-02T15:52:24.179Z,91.07
2018-12-02T15:54:52.312Z,116.47
2018-12-02T15:57:20.350Z,90.13
2018-12-02T15:59:48.394Z,110.43
2018-12-02T16:02:16.508Z,83.13
2018-12-02T16:04:44.554Z,98.00
2018-12-02T16:07:12.578Z,97.37
2018-12-02T16:09:40.594Z,103.27
2018-12-02T16:12:08.690Z,96.60
2018-12-02T16:14:36.716Z,105.67
2018-12-02T16:17:04.987Z,98.33
2018-12-02T16:19:33.047Z,99.40
2018-12-02T16:22:01.066Z,96.50
2018-12-02T16:24:29.130Z,96.30
2018-12-02T16:26:57.138Z,107.53
2018-12-02T16:29:25.207Z,107.87
2018-12-02T16:31:53.317Z,103.40
2018-12-02T16:34:21.617Z,116.53
2018-12-02T16:36:49.409Z,80.17
2018-12-02T16:39:17.484Z,109.13
2018-12-02T16:41:45.564Z,101.77
2018-12-02T16:44:13.617Z,90.60
2018-12-02T16:46:43.607Z,90.50
2018-12-02T16:49:11.629Z,98.50
2018-12-02T16:51:39.654Z,94.00
2018-12-02T16:54:07.789Z,107.43
2018-12-02T16:56:36.576Z,87.77
2018-12-02T16:59:17.170Z,99.40
2018-12-02T17:01:48.133Z,105.43
2018-12-02T17:04:16.314Z,106.03
2018-12-02T17:06:44.444Z,101.03
2018-12-02T17:09:12.973Z,91.57
2018-12-02T17:11:41.879Z,85.73
2018-12-02T17:14:09.959Z,105.67
2018-12-02T17:16:37.994Z,89.57
2018-12-02T17:19:07.047Z,91.70
2018-12-02T17:21:35.202Z,114.97
2018-12-02T17:24:03.419Z,105.30
2018-12-02T17:26:31.437Z,88.60
2018-12-02T17:29:00.342Z,105.27
2018-12-02T17:31:31.086Z,97.13
2018-12-02T17:33:59.116Z,103.87
2018-12-02T17:36:27.141Z,84.83
2018-12-02T17:38:58.362Z,87.63
2018-12-02T17:41:26.412Z,89.67
2018-12-02T17:43:54.396Z,83.23
2018-12-02T17:46:22.416Z,88.70
2018-12-02T17:48:50.438Z,83.57
2018-12-02T17:51:18.515Z,91.83
2018-12-02T17:53:46.526Z,94.97
2018-12-02T17:56:14.571Z,96.97
2018-12-02T17:58:42.574Z,89.40
2018-12-02T18:01:10.580Z,85.00
2018-12-02T18:03:39.680Z,85.00
2018-12-02T18:06:10.000Z,81.90
2018-12-02T18:08:37.961Z,78.17
2018-12-02T18:11:05.993Z,80.57
2018-12-02T18:13:36.550Z,92.07
2018-12-02T18:16:04.112Z,92.47
2018-12-02T18:18:32.249Z,80.00
2018-12-02T18:21:00.211Z,92.40
2018-12-02T18:23:28.202Z,81.17
2018-12-02T18:25:56.300Z,90.17
2018-12-02T18:28:24.294Z,103.07
2018-12-02T18:30:52.328Z,94.90
2018-12-02T18:33:20.419Z,98.00
2018-12-02T18:36:56.866Z,106.03
2018-12-02T18:39:24.896Z,97.77
2018-12-02T18:41:54.085Z,104.20
2018-12-02T18:44:22.101Z,100.33
2018-12-02T18:46:50.145Z,97.37
2018-12-02T18:49:18.184Z,100.13
2018-12-02T18:51:48.130Z,101.07
2018-12-02T18:54:16.176Z,84.50
2018-12-02T18:56:44.256Z,83.63
2018-12-02T18:59:13.860Z,84.97
2018-12-02T19:01:41.978Z,85.60
2018-12-02T19:04:09.978Z,83.33
2018-12-02T19:06:38.166Z,80.43
2018-12-02T19:09:09.735Z,69.70
2018-12-02T19:11:37.802Z,76.27
2018-12-02T19:14:05.900Z,75.00
2018-12-02T19:16:33.998Z,72.87
2018-12-02T19:19:02.011Z,68.97
2018-12-02T19:21:30.887Z,76.57
2018-12-02T19:23:59.468Z,80.80
2018-12-02T19:26:27.952Z,72.33
2018-12-02T19:28:55.968Z,74.97
2018-12-02T19:31:23.962Z,82.20
2018-12-02T19:33:53.920Z,88.80
2018-12-02T19:36:30.445Z,95.73
2018-12-02T19:38:58.434Z,78.13
2018-12-02T19:41:26.438Z,84.27
2018-12-02T19:43:54.478Z,77.23
2018-12-02T19:46:22.518Z,75.83
2018-12-02T19:48:50.543Z,70.47
2018-12-02T19:51:18.570Z,81.67
2018-12-02T19:53:46.588Z,83.43
2018-12-02T19:56:14.609Z,83.37
2018-12-02T19:58:42.610Z,90.57
2018-12-02T20:01:10.682Z,87.47
2018-12-02T20:03:38.645Z,90.80
2018-12-02T20:06:06.746Z,97.43
2018-12-02T20:08:34.804Z,96.73
2018-12-02T20:11:02.872Z,93.90
2018-12-02T20:13:30.933Z,86.00
2018-12-02T20:16:04.516Z,78.27
2018-12-02T20:18:32.757Z,79.40
2018-12-02T20:21:01.271Z,73.83
2018-12-02T20:23:34.873Z,77.17
2018-12-02T20:26:04.326Z,87.93
2018-12-02T20:28:50.745Z,75.03
2018-12-02T20:31:20.859Z,83.90
2018-12-02T20:33:48.924Z,88.20
2018-12-02T20:36:17.008Z,86.87
2018-12-02T20:38:45.077Z,78.33
2018-12-02T20:41:13.109Z,73.63
2018-12-02T20:43:41.113Z,82.17
2018-12-02T20:46:09.129Z,82.43
2018-12-02T20:48:37.127Z,80.23
2018-12-02T20:51:05.284Z,88.27
2018-12-02T20:53:33.295Z,94.83
2018-12-02T20:56:01.310Z,89.80
2018-12-02T20:58:29.377Z,87.53
2018-12-02T21:00:57.443Z,83.87
2018-12-02T21:03:27.353Z,88.50
2018-12-02T21:06:26.146Z,77.93
2018-12-02T21:08:54.218Z,83.60
2018-12-02T21:11:22.260Z,81.23
2018-12-02T21:13:50.393Z,74.97
2018-12-02T21:16:18.585Z,87.63
2018-12-02T21:18:46.633Z,86.47
2018-12-02T21:21:14.713Z,81.97
2018-12-02T21:23:42.777Z,91.50
2018-12-02T21:26:11.357Z,85.03
2018-12-02T21:28:40.312Z,86.50
2018-12-02T21:31:08.314Z,99.40
2018-12-02T21:33:36.295Z,83.40
2018-12-02T21:36:04.729Z,91.73
2018-12-02T21:38:32.746Z,93.30
2018-12-02T21:41:00.756Z,105.30
2018-12-02T21:43:28.758Z,109.80
2018-12-02T21:45:56.777Z,98.67
2018-12-02T21:48:24.766Z,97.03
2018-12-02T21:50:54.395Z,88.27
2018-12-02T21:53:22.393Z,95.70
2018-12-02T21:55:50.446Z,111.87
2018-12-02T21:58:18.481Z,91.63
2018-12-02T22:00:52.227Z,88.53
2018-12-02T22:03:20.281Z,94.50
2018-12-02T22:05:48.993Z,98.53
2018-12-02T22:08:17.173Z,108.17
2018-12-02T22:10:45.448Z,107.70
2018-12-02T22:13:13.483Z,106.50
2018-12-02T22:15:41.483Z,95.93
2018-12-02T22:18:09.519Z,92.73
2018-12-02T22:20:37.497Z,109.40
2018-12-02T22:23:05.610Z,102.17
2018-12-02T22:25:33.621Z,106.97
2018-12-02T22:28:01.642Z,103.80
2018-12-02T22:30:29.649Z,100.37
2018-12-02T22:32:57.676Z,102.57
2018-12-02T22:35:25.719Z,88.80
2018-12-02T22:37:53.705Z,98.90
2018-12-02T22:40:23.644Z,100.07
2018-12-02T22:42:53.591Z,103.47
2018-12-02T22:45:23.641Z,97.40
2018-12-02T22:47:51.714Z,95.20
2018-12-02T22:50:20.678Z,98.20
2018-12-02T22:52:49.924Z,95.67
2018-12-02T22:55:17.960Z,91.67
2018-12-02T22:57:45.976Z,87.03
2018-12-02T23:01:26.604Z,87.33
2018-12-02T23:03:54.654Z,83.50
2018-12-02T23:06:22.817Z,93.17
2018-12-02T23:08:50.994Z,91.33
2018-12-02T23:11:19.004Z,97.33
2018-12-02T23:13:47.006Z,105.00
2018-12-02T23:16:14.998Z,108.10
2018-12-02T23:18:43.008Z,91.00
2018-12-02T23:21:11.020Z,99.47
2018-12-02T23:23:39.054Z,96.63
2018-12-02T23:26:07.170Z,100.23
2018-12-02T23:28:35.176Z,95.37
2018-12-02T23:31:03.256Z,91.43
2018-12-02T23:33:31.294Z,91.30
2018-12-02T23:35:59.417Z,82.23
2018-12-02T23:38:27.455Z,91.90
2018-12-02T23:40:55.480Z,90.33
2018-12-02T23:43:23.519Z,101.67
2018-12-02T23:45:51.588Z,93.30
2018-12-02T23:48:19.560Z,90.27
2018-12-02T23:50:47.585Z,89.10
2018-12-02T23:53:15.603Z,79.23
2018-12-02T23:55:43.596Z,95.17
2018-12-02T23:58:11.653Z,92.10
